sensor_id;sensor_type;location;lat;lon;timestamp;pressure;altitude;pressure_sealevel;temperature;humidity
54556;BME280;57291;37.520;15.106;2023-05-24T00:00:33;100984.00;;;17.22;76.24
54556;BME280;57291;37.520;15.106;2023-05-24T00:03:00;100984.31;;;17.21;76.32
54556;BME280;57291;37.520;15.106;2023-05-24T00:05:28;100990.63;;;17.21;76.69
54556;BME280;57291;37.520;15.106;2023-05-24T00:07:57;100982.72;;;17.20;76.16
54556;BME280;57291;37.520;15.106;2023-05-24T00:10:25;100983.88;;;17.19;76.60
54556;BME280;57291;37.520;15.106;2023-05-24T00:12:52;100981.13;;;17.19;76.19
54556;BME280;57291;37.520;15.106;2023-05-24T00:15:19;100978.22;;;17.15;76.16
54556;BME280;57291;37.520;15.106;2023-05-24T00:17:46;100981.16;;;17.10;76.39
54556;BME280;57291;37.520;15.106;2023-05-24T00:20:13;100979.88;;;17.07;76.99
54556;BME280;57291;37.520;15.106;2023-05-24T00:22:41;100977.13;;;17.07;76.59
54556;BME280;57291;37.520;15.106;2023-05-24T00:25:08;100981.69;;;17.03;76.56
54556;BME280;57291;37.520;15.106;2023-05-24T00:27:35;100977.66;;;17.01;76.71
54556;BME280;57291;37.520;15.106;2023-05-24T00:30:04;100970.09;;;16.98;76.89
54556;BME280;57291;37.520;15.106;2023-05-24T00:32:32;100974.63;;;16.94;77.35
54556;BME280;57291;37.520;15.106;2023-05-24T00:35:02;100978.53;;;16.93;77.30
54556;BME280;57291;37.520;15.106;2023-05-24T00:37:30;100970.59;;;16.91;77.42
54556;BME280;57291;37.520;15.106;2023-05-24T00:39:57;100969.00;;;16.90;77.48
54556;BME280;57291;37.520;15.106;2023-05-24T00:42:24;100969.00;;;16.90;77.34
54556;BME280;57291;37.520;15.106;2023-05-24T00:44:52;100970.16;;;16.89;77.42
54556;BME280;57291;37.520;15.106;2023-05-24T00:47:19;100964.19;;;16.87;77.32
54556;BME280;57291;37.520;15.106;2023-05-24T00:49:46;100962.59;;;16.86;77.68
54556;BME280;57291;37.520;15.106;2023-05-24T00:52:14;100973.56;;;16.86;77.44
54556;BME280;57291;37.520;15.106;2023-05-24T00:54:42;100974.03;;;16.88;77.05
54556;BME280;57291;37.520;15.106;2023-05-24T00:57:10;100972.25;;;16.92;76.90
54556;BME280;57291;37.520;15.106;2023-05-24T00:59:40;100975.78;;;16.93;76.58
54556;BME280;57291;37.520;15.106;2023-05-24T01:02:07;100968.69;;;16.92;76.21
54556;BME280;57291;37.520;15.106;2023-05-24T01:04:34;100967.88;;;16.91;76.17
54556;BME280;57291;37.520;15.106;2023-05-24T01:10:16;100970.44;;;16.96;76.02
54556;BME280;57291;37.520;15.106;2023-05-24T01:16:00;100979.00;;;16.95;76.06
54556;BME280;57291;37.520;15.106;2023-05-24T01:18:34;100975.00;;;16.92;76.12
54556;BME280;57291;37.520;15.106;2023-05-24T01:29:35;100965.81;;;16.88;76.80
54556;BME280;57291;37.520;15.106;2023-05-24T01:32:02;100964.84;;;16.84;76.99
54556;BME280;57291;37.520;15.106;2023-05-24T01:34:30;100969.75;;;16.78;77.41
54556;BME280;57291;37.520;15.106;2023-05-24T01:36:57;100976.97;;;16.74;78.37
54556;BME280;57291;37.520;15.106;2023-05-24T01:39:27;100985.06;;;16.71;78.95
54556;BME280;57291;37.520;15.106;2023-05-24T01:42:35;100979.56;;;16.71;79.07
54556;BME280;57291;37.520;15.106;2023-05-24T01:50:27;100981.03;;;16.68;79.24
54556;BME280;57291;37.520;15.106;2023-05-24T01:53:02;100989.25;;;16.68;79.43
54556;BME280;57291;37.520;15.106;2023-05-24T01:55:32;100982.97;;;16.68;79.42
54556;BME280;57291;37.520;15.106;2023-05-24T01:58:02;100987.34;;;16.69;79.71
54556;BME280;57291;37.520;15.106;2023-05-24T02:00:32;100976.69;;;16.67;79.83
54556;BME280;57291;37.520;15.106;2023-05-24T02:03:00;100980.56;;;16.66;79.93
54556;BME280;57291;37.520;15.106;2023-05-24T02:05:31;100984.13;;;16.67;80.08
54556;BME280;57291;37.520;15.106;2023-05-24T02:08:04;100980.09;;;16.64;80.12
54556;BME280;57291;37.520;15.106;2023-05-24T02:10:31;100982.38;;;16.62;80.48
54556;BME280;57291;37.520;15.106;2023-05-24T02:12:59;100990.47;;;16.58;80.84
54556;BME280;57291;37.520;15.106;2023-05-24T02:15:26;100985.63;;;16.55;80.61
54556;BME280;57291;37.520;15.106;2023-05-24T02:17:57;100986.75;;;16.54;80.98
54556;BME280;57291;37.520;15.106;2023-05-24T02:20:24;100978.06;;;16.52;81.02
54556;BME280;57291;37.520;15.106;2023-05-24T02:22:52;100983.53;;;16.52;81.07
54556;BME280;57291;37.520;15.106;2023-05-24T02:25:19;100976.56;;;16.55;81.21
54556;BME280;57291;37.520;15.106;2023-05-24T02:27:46;100976.25;;;16.56;80.85
54556;BME280;57291;37.520;15.106;2023-05-24T02:30:14;100981.75;;;16.56;81.32
54556;BME280;57291;37.520;15.106;2023-05-24T02:32:41;100981.75;;;16.56;81.16
54556;BME280;57291;37.520;15.106;2023-05-24T02:35:08;100973.81;;;16.55;81.14
54556;BME280;57291;37.520;15.106;2023-05-24T02:37:36;100967.53;;;16.54;81.42
54556;BME280;57291;37.520;15.106;2023-05-24T02:40:03;100975.31;;;16.52;81.17
54556;BME280;57291;37.520;15.106;2023-05-24T02:42:31;100971.75;;;16.52;81.26
54556;BME280;57291;37.520;15.106;2023-05-24T02:44:58;100967.75;;;16.49;81.10
54556;BME280;57291;37.520;15.106;2023-05-24T02:47:26;100977.09;;;16.48;81.46
54556;BME280;57291;37.520;15.106;2023-05-24T02:49:54;100972.25;;;16.45;81.42
54556;BME280;57291;37.520;15.106;2023-05-24T02:52:22;100980.03;;;16.43;81.45
54556;BME280;57291;37.520;15.106;2023-05-24T02:54:49;100977.94;;;16.40;81.76
54556;BME280;57291;37.520;15.106;2023-05-24T02:57:18;100972.47;;;16.31;82.16
54556;BME280;57291;37.520;15.106;2023-05-24T02:59:46;100983.28;;;16.28;82.31
54556;BME280;57291;37.520;15.106;2023-05-24T03:02:13;100974.25;;;16.27;82.19
54556;BME280;57291;37.520;15.106;2023-05-24T03:04:40;100980.56;;;16.28;82.52
54556;BME280;57291;37.520;15.106;2023-05-24T03:07:10;100989.91;;;16.27;82.26
54556;BME280;57291;37.520;15.106;2023-05-24T03:09:37;100997.00;;;16.28;82.60
54556;BME280;57291;37.520;15.106;2023-05-24T03:12:05;100994.59;;;16.26;82.57
54556;BME280;57291;37.520;15.106;2023-05-24T03:14:33;100996.06;;;16.24;82.55
54556;BME280;57291;37.520;15.106;2023-05-24T03:17:00;100988.13;;;16.22;82.44
54556;BME280;57291;37.520;15.106;2023-05-24T03:19:28;100992.03;;;16.21;82.60
54556;BME280;57291;37.520;15.106;2023-05-24T03:21:56;100996.72;;;16.21;82.78
54556;BME280;57291;37.520;15.106;2023-05-24T03:24:23;101002.19;;;16.21;82.87
54556;BME280;57291;37.520;15.106;2023-05-24T03:26:52;101004.13;;;16.20;82.84
54556;BME280;57291;37.520;15.106;2023-05-24T03:29:19;101006.06;;;16.20;82.55
54556;BME280;57291;37.520;15.106;2023-05-24T03:31:47;101000.59;;;16.20;82.57
54556;BME280;57291;37.520;15.106;2023-05-24T03:34:14;101003.00;;;16.21;82.36
54556;BME280;57291;37.520;15.106;2023-05-24T03:36:42;101006.53;;;16.22;82.53
54556;BME280;57291;37.520;15.106;2023-05-24T03:39:09;101001.06;;;16.22;82.49
54556;BME280;57291;37.520;15.106;2023-05-24T03:41:57;101004.13;;;16.20;82.52
54556;BME280;57291;37.520;15.106;2023-05-24T03:44:25;100997.50;;;16.21;82.45
54556;BME280;57291;37.520;15.106;2023-05-24T03:46:52;101001.06;;;16.22;82.50
54556;BME280;57291;37.520;15.106;2023-05-24T03:49:19;100998.00;;;16.23;82.37
54556;BME280;57291;37.520;15.106;2023-05-24T03:51:46;101003.47;;;16.23;82.49
54556;BME280;57291;37.520;15.106;2023-05-24T03:54:13;101011.38;;;16.25;82.32
54556;BME280;57291;37.520;15.106;2023-05-24T03:56:41;101000.56;;;16.28;82.07
54556;BME280;57291;37.520;15.106;2023-05-24T03:59:08;101003.44;;;16.32;81.95
54556;BME280;57291;37.520;15.106;2023-05-24T04:01:35;100998.13;;;16.35;81.87
54556;BME280;57291;37.520;15.106;2023-05-24T04:04:03;101010.84;;;16.40;81.84
54556;BME280;57291;37.520;15.106;2023-05-24T04:06:31;100998.88;;;16.45;81.86
54556;BME280;57291;37.520;15.106;2023-05-24T04:08:59;101003.41;;;16.49;81.45
54556;BME280;57291;37.520;15.106;2023-05-24T04:11:27;101001.59;;;16.53;80.35
54556;BME280;57291;37.520;15.106;2023-05-24T04:13:56;101003.34;;;16.58;80.24
54556;BME280;57291;37.520;15.106;2023-05-24T04:16:24;101000.09;;;16.64;80.24
54556;BME280;57291;37.520;15.106;2023-05-24T04:18:53;101005.06;;;16.71;79.77
54556;BME280;57291;37.520;15.106;2023-05-24T04:21:21;101004.59;;;16.78;79.35
54556;BME280;57291;37.520;15.106;2023-05-24T04:23:49;101007.66;;;16.85;79.00
54556;BME280;57291;37.520;15.106;2023-05-24T04:26:16;101011.78;;;16.91;78.87
54556;BME280;57291;37.520;15.106;2023-05-24T04:28:44;101014.84;;;16.98;78.47
54556;BME280;57291;37.520;15.106;2023-05-24T04:31:14;101009.63;;;17.05;78.21
54556;BME280;57291;37.520;15.106;2023-05-24T04:33:42;101000.53;;;17.14;78.24
54556;BME280;57291;37.520;15.106;2023-05-24T04:36:09;101013.72;;;17.20;77.98
54556;BME280;57291;37.520;15.106;2023-05-24T04:38:38;101021.56;;;17.30;78.09
54556;BME280;57291;37.520;15.106;2023-05-24T04:41:06;101012.66;;;17.33;77.56
54556;BME280;57291;37.520;15.106;2023-05-24T04:43:33;101014.22;;;17.43;77.57
54556;BME280;57291;37.520;15.106;2023-05-24T04:46:01;101009.94;;;17.54;77.62
54556;BME280;57291;37.520;15.106;2023-05-24T04:48:29;101015.50;;;17.67;77.32
54556;BME280;57291;37.520;15.106;2023-05-24T04:50:56;101026.13;;;17.77;76.42
54556;BME280;57291;37.520;15.106;2023-05-24T04:53:24;101025.22;;;17.85;75.76
54556;BME280;57291;37.520;15.106;2023-05-24T04:55:51;101028.50;;;17.99;75.36
54556;BME280;57291;37.520;15.106;2023-05-24T04:58:19;101027.63;;;18.08;74.33
54556;BME280;57291;37.520;15.106;2023-05-24T05:00:46;101028.78;;;18.19;75.16
54556;BME280;57291;37.520;15.106;2023-05-24T05:03:13;101031.50;;;18.40;76.28
54556;BME280;57291;37.520;15.106;2023-05-24T05:05:41;101042.06;;;18.50;76.31
54556;BME280;57291;37.520;15.106;2023-05-24T05:08:08;101046.09;;;18.52;76.82
54556;BME280;57291;37.520;15.106;2023-05-24T05:10:35;101048.72;;;18.61;76.16
54556;BME280;57291;37.520;15.106;2023-05-24T05:13:03;101043.19;;;18.49;78.20
54556;BME280;57291;37.520;15.106;2023-05-24T05:15:30;101050.44;;;18.54;77.10
54556;BME280;57291;37.520;15.106;2023-05-24T05:17:58;101056.75;;;18.54;77.17
54556;BME280;57291;37.520;15.106;2023-05-24T05:20:26;101043.59;;;18.72;76.77
54556;BME280;57291;37.520;15.106;2023-05-24T05:22:53;101047.53;;;19.08;76.71
54556;BME280;57291;37.520;15.106;2023-05-24T05:25:20;101046.56;;;19.53;73.58
54556;BME280;57291;37.520;15.106;2023-05-24T05:27:48;101063.66;;;20.27;71.73
54556;BME280;57291;37.520;15.106;2023-05-24T05:30:15;101057.97;;;21.62;67.54
54556;BME280;57291;37.520;15.106;2023-05-24T05:32:42;101055.16;;;22.40;63.71
54556;BME280;57291;37.520;15.106;2023-05-24T05:35:09;101064.31;;;22.90;62.09
54556;BME280;57291;37.520;15.106;2023-05-24T05:37:37;101062.03;;;23.18;60.26
54556;BME280;57291;37.520;15.106;2023-05-24T05:40:05;101062.53;;;22.98;56.57
54556;BME280;57291;37.520;15.106;2023-05-24T05:42:33;101066.00;;;22.71;57.56
54556;BME280;57291;37.520;15.106;2023-05-24T05:45:00;101067.81;;;22.18;61.53
54556;BME280;57291;37.520;15.106;2023-05-24T05:47:27;101059.78;;;21.93;64.80
54556;BME280;57291;37.520;15.106;2023-05-24T05:49:54;101071.72;;;21.59;66.32
54556;BME280;57291;37.520;15.106;2023-05-24T05:52:21;101055.94;;;21.78;66.38
54556;BME280;57291;37.520;15.106;2023-05-24T05:54:49;101062.31;;;21.63;67.73
54556;BME280;57291;37.520;15.106;2023-05-24T05:57:16;101058.25;;;23.04;62.22
54556;BME280;57291;37.520;15.106;2023-05-24T05:59:45;101062.53;;;23.81;59.31
54556;BME280;57291;37.520;15.106;2023-05-24T06:02:12;101068.00;;;24.07;57.98
54556;BME280;57291;37.520;15.106;2023-05-24T06:04:39;101069.41;;;24.28;56.42
54556;BME280;57291;37.520;15.106;2023-05-24T06:07:07;101071.34;;;24.57;56.44
54556;BME280;57291;37.520;15.106;2023-05-24T06:09:34;101066.41;;;24.81;53.46
54556;BME280;57291;37.520;15.106;2023-05-24T06:12:01;101068.94;;;25.04;53.47
54556;BME280;57291;37.520;15.106;2023-05-24T06:14:28;101070.28;;;25.17;54.60
54556;BME280;57291;37.520;15.106;2023-05-24T06:16:56;101073.47;;;25.19;51.39
54556;BME280;57291;37.520;15.106;2023-05-24T06:19:26;101073.88;;;25.21;53.83
54556;BME280;57291;37.520;15.106;2023-05-24T06:21:53;101080.44;;;25.50;51.19
54556;BME280;57291;37.520;15.106;2023-05-24T06:24:20;101085.13;;;25.39;50.56
54556;BME280;57291;37.520;15.106;2023-05-24T06:26:49;101089.13;;;25.45;49.94
54556;BME280;57291;37.520;15.106;2023-05-24T06:29:17;101087.25;;;25.64;50.48
54556;BME280;57291;37.520;15.106;2023-05-24T06:31:48;101080.16;;;25.73;51.38
54556;BME280;57291;37.520;15.106;2023-05-24T06:34:18;101081.44;;;25.90;50.76
54556;BME280;57291;37.520;15.106;2023-05-24T06:36:47;101076.72;;;26.12;49.13
54556;BME280;57291;37.520;15.106;2023-05-24T06:39:17;101082.75;;;26.25;47.69
54556;BME280;57291;37.520;15.106;2023-05-24T06:41:44;101079.03;;;25.85;47.75
54556;BME280;57291;37.520;15.106;2023-05-24T06:44:13;101077.09;;;25.96;48.51
54556;BME280;57291;37.520;15.106;2023-05-24T06:46:40;101083.59;;;25.49;49.37
54556;BME280;57291;37.520;15.106;2023-05-24T06:49:08;101083.69;;;25.08;50.00
54556;BME280;57291;37.520;15.106;2023-05-24T06:51:35;101085.16;;;25.50;49.62
54556;BME280;57291;37.520;15.106;2023-05-24T06:54:04;101089.94;;;25.49;50.94
54556;BME280;57291;37.520;15.106;2023-05-24T06:56:31;101088.31;;;25.38;48.92
54556;BME280;57291;37.520;15.106;2023-05-24T06:58:58;101086.69;;;25.37;47.46
54556;BME280;57291;37.520;15.106;2023-05-24T07:01:26;101094.97;;;25.30;48.25
54556;BME280;57291;37.520;15.106;2023-05-24T07:03:53;101087.41;;;25.26;47.58
54556;BME280;57291;37.520;15.106;2023-05-24T07:06:21;101094.19;;;25.29;47.55
54556;BME280;57291;37.520;15.106;2023-05-24T07:08:48;101086.22;;;25.24;46.81
54556;BME280;57291;37.520;15.106;2023-05-24T07:11:15;101084.59;;;25.23;48.40
54556;BME280;57291;37.520;15.106;2023-05-24T07:13:42;101083.00;;;25.18;46.30
54556;BME280;57291;37.520;15.106;2023-05-24T07:16:09;101081.41;;;25.17;47.13
54556;BME280;57291;37.520;15.106;2023-05-24T07:18:37;101082.59;;;25.20;46.95
54556;BME280;57291;37.520;15.106;2023-05-24T07:21:07;101089.47;;;25.37;49.53
54556;BME280;57291;37.520;15.106;2023-05-24T07:23:36;101095.88;;;25.41;48.88
54556;BME280;57291;37.520;15.106;2023-05-24T07:26:03;101083.94;;;25.40;50.92
54556;BME280;57291;37.520;15.106;2023-05-24T07:28:31;101091.38;;;25.22;49.69
54556;BME280;57291;37.520;15.106;2023-05-24T07:30:58;101091.78;;;25.24;51.56
54556;BME280;57291;37.520;15.106;2023-05-24T07:33:25;101098.97;;;25.29;53.49
54556;BME280;57291;37.520;15.106;2023-05-24T07:35:53;101087.09;;;25.35;50.65
54556;BME280;57291;37.520;15.106;2023-05-24T07:38:23;101089.00;;;25.24;52.43
54556;BME280;57291;37.520;15.106;2023-05-24T07:40:50;101091.31;;;25.15;53.31
54556;BME280;57291;37.520;15.106;2023-05-24T07:43:19;101086.34;;;24.94;52.66
54556;BME280;57291;37.520;15.106;2023-05-24T07:45:46;101087.41;;;24.78;52.72
54556;BME280;57291;37.520;15.106;2023-05-24T07:48:13;101088.47;;;24.63;52.18
54556;BME280;57291;37.520;15.106;2023-05-24T07:50:40;101094.69;;;24.49;54.94
54556;BME280;57291;37.520;15.106;2023-05-24T07:53:09;101091.75;;;24.35;55.36
54556;BME280;57291;37.520;15.106;2023-05-24T07:55:36;101097.69;;;24.37;55.68
54556;BME280;57291;37.520;15.106;2023-05-24T07:58:03;101098.28;;;23.86;57.33
54556;BME280;57291;37.520;15.106;2023-05-24T08:00:30;101092.75;;;23.59;58.09
54556;BME280;57291;37.520;15.106;2023-05-24T08:02:59;101096.88;;;23.69;57.62
54556;BME280;57291;37.520;15.106;2023-05-24T08:05:26;101100.81;;;23.68;56.93
54556;BME280;57291;37.520;15.106;2023-05-24T08:07:54;101098.63;;;23.81;58.13
54556;BME280;57291;37.520;15.106;2023-05-24T08:10:21;101104.25;;;23.88;57.54
54556;BME280;57291;37.520;15.106;2023-05-24T08:12:49;101100.75;;;23.95;57.98
54556;BME280;57291;37.520;15.106;2023-05-24T08:15:17;101108.16;;;23.83;58.18
54556;BME280;57291;37.520;15.106;2023-05-24T08:17:44;101100.50;;;23.47;57.79
54556;BME280;57291;37.520;15.106;2023-05-24T08:20:11;101103.53;;;23.38;58.33
54556;BME280;57291;37.520;15.106;2023-05-24T08:22:42;101102.13;;;23.51;58.88
54556;BME280;57291;37.520;15.106;2023-05-24T08:25:09;101103.59;;;23.41;59.61
54556;BME280;57291;37.520;15.106;2023-05-24T08:27:40;101101.06;;;23.33;60.18
54556;BME280;57291;37.520;15.106;2023-05-24T08:30:07;101103.59;;;23.41;59.37
54556;BME280;57291;37.520;15.106;2023-05-24T08:32:35;101105.59;;;23.18;60.69
54556;BME280;57291;37.520;15.106;2023-05-24T08:35:03;101101.34;;;23.24;59.75
54556;BME280;57291;37.520;15.106;2023-05-24T08:37:47;101104.97;;;23.28;60.47
54556;BME280;57291;37.520;15.106;2023-05-24T08:40:15;101111.16;;;23.18;60.12
54556;BME280;57291;37.520;15.106;2023-05-24T08:42:44;101099.78;;;23.00;59.91
54556;BME280;57291;37.520;15.106;2023-05-24T08:45:14;101098.47;;;23.17;60.83
54556;BME280;57291;37.520;15.106;2023-05-24T08:47:42;101096.81;;;23.39;58.30
54556;BME280;57291;37.520;15.106;2023-05-24T08:50:09;101099.94;;;23.11;57.98
54556;BME280;57291;37.520;15.106;2023-05-24T08:52:37;101096.50;;;22.94;59.94
54556;BME280;57291;37.520;15.106;2023-05-24T08:55:06;101099.75;;;22.77;58.39
54556;BME280;57291;37.520;15.106;2023-05-24T08:57:35;101104.69;;;22.64;57.97
54556;BME280;57291;37.520;15.106;2023-05-24T09:00:07;101103.25;;;22.51;59.96
54556;BME280;57291;37.520;15.106;2023-05-24T09:02:38;101108.19;;;22.61;59.17
54556;BME280;57291;37.520;15.106;2023-05-24T09:05:09;101108.31;;;22.26;60.96
54556;BME280;57291;37.520;15.106;2023-05-24T09:07:37;101117.47;;;22.30;62.23
54556;BME280;57291;37.520;15.106;2023-05-24T09:10:06;101112.88;;;21.99;63.83
54556;BME280;57291;37.520;15.106;2023-05-24T09:12:35;101119.59;;;22.17;65.83
54556;BME280;57291;37.520;15.106;2023-05-24T09:15:06;101118.44;;;22.18;65.46
54556;BME280;57291;37.520;15.106;2023-05-24T09:17:35;101112.94;;;21.83;66.38
54556;BME280;57291;37.520;15.106;2023-05-24T09:20:08;101118.81;;;21.46;67.39
54556;BME280;57291;37.520;15.106;2023-05-24T09:22:36;101116.69;;;21.40;70.80
54556;BME280;57291;37.520;15.106;2023-05-24T09:25:08;101117.47;;;21.24;72.49
54556;BME280;57291;37.520;15.106;2023-05-24T09:27:36;101121.59;;;20.83;74.72
54556;BME280;57291;37.520;15.106;2023-05-24T09:30:10;101124.31;;;20.51;77.34
54556;BME280;57291;37.520;15.106;2023-05-24T09:32:38;101119.16;;;20.37;78.55
54556;BME280;57291;37.520;15.106;2023-05-24T09:35:08;101121.13;;;20.09;79.57
54556;BME280;57291;37.520;15.106;2023-05-24T09:37:36;101118.50;;;20.00;78.57
54556;BME280;57291;37.520;15.106;2023-05-24T09:40:17;101122.34;;;20.24;77.53
54556;BME280;57291;37.520;15.106;2023-05-24T09:42:46;101128.28;;;20.26;76.84
54556;BME280;57291;37.520;15.106;2023-05-24T09:45:17;101119.16;;;20.37;76.31
54556;BME280;57291;37.520;15.106;2023-05-24T09:47:44;101116.41;;;20.37;77.04
54556;BME280;57291;37.520;15.106;2023-05-24T09:50:14;101118.41;;;20.53;76.64
54556;BME280;57291;37.520;15.106;2023-05-24T09:52:42;101125.56;;;20.54;76.92
54556;BME280;57291;37.520;15.106;2023-05-24T09:55:19;101114.28;;;20.75;77.32
54556;BME280;57291;37.520;15.106;2023-05-24T09:57:50;101118.31;;;20.93;77.82
54556;BME280;57291;37.520;15.106;2023-05-24T10:00:23;101118.03;;;20.98;78.10
54556;BME280;57291;37.520;15.106;2023-05-24T10:03:02;101111.25;;;20.96;76.65
54556;BME280;57291;37.520;15.106;2023-05-24T10:05:30;101112.03;;;20.65;77.88
54556;BME280;57291;37.520;15.106;2023-05-24T10:07:57;101112.66;;;20.58;79.19
54556;BME280;57291;37.520;15.106;2023-05-24T10:10:28;101107.16;;;20.46;79.16
54556;BME280;57291;37.520;15.106;2023-05-24T10:12:56;101109.72;;;20.38;79.87
54556;BME280;57291;37.520;15.106;2023-05-24T10:15:25;101112.94;;;20.41;81.09
54556;BME280;57291;37.520;15.106;2023-05-24T10:17:54;101112.03;;;20.36;78.74
54556;BME280;57291;37.520;15.106;2023-05-24T10:20:26;101105.97;;;20.31;78.74
54556;BME280;57291;37.520;15.106;2023-05-24T10:22:58;101110.69;;;20.30;79.26
54556;BME280;57291;37.520;15.106;2023-05-24T10:25:28;101109.47;;;20.15;80.90
54556;BME280;57291;37.520;15.106;2023-05-24T10:31:39;101102.84;;;20.32;81.76
54556;BME280;57291;37.520;15.106;2023-05-24T10:34:08;101097.53;;;20.39;81.53
54556;BME280;57291;37.520;15.106;2023-05-24T10:36:36;101097.19;;;20.13;81.79
54556;BME280;57291;37.520;15.106;2023-05-24T10:39:09;101097.38;;;20.20;81.30
54556;BME280;57291;37.520;15.106;2023-05-24T10:41:39;101096.16;;;20.18;82.11
54556;BME280;57291;37.520;15.106;2023-05-24T10:44:11;101095.03;;;20.34;82.44
54556;BME280;57291;37.520;15.106;2023-05-24T10:47:21;101092.19;;;20.31;81.62
54556;BME280;57291;37.520;15.106;2023-05-24T10:49:56;101096.06;;;20.30;81.79
54556;BME280;57291;37.520;15.106;2023-05-24T10:52:34;101098.13;;;20.61;80.50
54556;BME280;57291;37.520;15.106;2023-05-24T10:55:05;101088.63;;;20.46;80.23
54556;BME280;57291;37.520;15.106;2023-05-24T10:57:38;101087.19;;;20.65;80.57
54556;BME280;57291;37.520;15.106;2023-05-24T11:03:08;101081.69;;;20.80;77.41
54556;BME280;57291;37.520;15.106;2023-05-24T11:08:23;101075.06;;;21.01;74.74
54556;BME280;57291;37.520;15.106;2023-05-24T11:13:54;101087.66;;;20.67;74.88
54556;BME280;57291;37.520;15.106;2023-05-24T11:16:38;101082.66;;;20.88;75.72
54556;BME280;57291;37.520;15.106;2023-05-24T11:19:19;101086.75;;;21.10;73.95
54556;BME280;57291;37.520;15.106;2023-05-24T11:21:48;101088.78;;;21.13;73.96
54556;BME280;57291;37.520;15.106;2023-05-24T11:24:17;101079.59;;;21.25;74.05
54556;BME280;57291;37.520;15.106;2023-05-24T11:26:45;101079.31;;;21.46;73.66
54556;BME280;57291;37.520;15.106;2023-05-24T11:29:13;101073.50;;;21.51;73.90
54556;BME280;57291;37.520;15.106;2023-05-24T11:31:51;101075.47;;;21.50;73.60
54556;BME280;57291;37.520;15.106;2023-05-24T11:34:19;101070.88;;;21.58;74.33
54556;BME280;57291;37.520;15.106;2023-05-24T11:36:48;101074.25;;;21.67;74.39
54556;BME280;57291;37.520;15.106;2023-05-24T11:39:17;101072.34;;;21.71;74.75
54556;BME280;57291;37.520;15.106;2023-05-24T11:41:46;101075.44;;;21.86;73.09
54556;BME280;57291;37.520;15.106;2023-05-24T11:44:16;101069.25;;;21.73;73.84
54556;BME280;57291;37.520;15.106;2023-05-24T11:46:45;101062.88;;;21.53;74.23
54556;BME280;57291;37.520;15.106;2023-05-24T11:49:14;101069.78;;;21.43;73.05
54556;BME280;57291;37.520;15.106;2023-05-24T11:51:42;101066.22;;;21.27;74.42
54556;BME280;57291;37.520;15.106;2023-05-24T11:54:09;101067.88;;;20.96;73.76
54556;BME280;57291;37.520;15.106;2023-05-24T11:56:37;101067.31;;;20.91;75.42
54556;BME280;57291;37.520;15.106;2023-05-24T11:59:13;101062.75;;;20.98;75.70
54556;BME280;57291;37.520;15.106;2023-05-24T12:01:41;101054.47;;;20.98;75.99
54556;BME280;57291;37.520;15.106;2023-05-24T12:04:09;101059.03;;;20.91;76.63
54556;BME280;57291;37.520;15.106;2023-05-24T12:06:41;101060.91;;;20.71;75.99
54556;BME280;57291;37.520;15.106;2023-05-24T12:09:10;101063.47;;;20.79;77.64
54556;BME280;57291;37.520;15.106;2023-05-24T12:11:45;101062.34;;;20.96;77.22
54556;BME280;57291;37.520;15.106;2023-05-24T12:14:13;101060.09;;;21.02;76.92
54556;BME280;57291;37.520;15.106;2023-05-24T12:16:41;101056.84;;;21.16;77.73
54556;BME280;57291;37.520;15.106;2023-05-24T12:19:19;101059.13;;;20.94;77.53
54556;BME280;57291;37.520;15.106;2023-05-24T12:21:53;101059.38;;;21.05;76.72
54556;BME280;57291;37.520;15.106;2023-05-24T12:24:22;101057.53;;;20.77;77.66
54556;BME280;57291;37.520;15.106;2023-05-24T12:26:49;101065.63;;;20.70;77.92
54556;BME280;57291;37.520;15.106;2023-05-24T12:29:18;101062.97;;;20.90;76.64
54556;BME280;57291;37.520;15.106;2023-05-24T12:31:48;101064.19;;;21.08;77.14
54556;BME280;57291;37.520;15.106;2023-05-24T12:34:19;101054.00;;;21.28;76.88
54556;BME280;57291;37.520;15.106;2023-05-24T12:36:47;101055.41;;;21.38;77.43
54556;BME280;57291;37.520;15.106;2023-05-24T12:39:25;101046.22;;;21.34;76.95
54556;BME280;57291;37.520;15.106;2023-05-24T12:41:57;101044.03;;;21.23;77.81
54556;BME280;57291;37.520;15.106;2023-05-24T12:44:29;101045.28;;;21.26;77.63
54556;BME280;57291;37.520;15.106;2023-05-24T12:46:57;101042.06;;;21.40;77.25
54556;BME280;57291;37.520;15.106;2023-05-24T12:49:25;101048.06;;;21.45;75.77
54556;BME280;57291;37.520;15.106;2023-05-24T12:51:55;101045.25;;;21.42;76.33
54556;BME280;57291;37.520;15.106;2023-05-24T12:54:24;101043.19;;;21.39;75.66
54556;BME280;57291;37.520;15.106;2023-05-24T12:56:53;101042.84;;;21.40;75.74
54556;BME280;57291;37.520;15.106;2023-05-24T12:59:23;101043.88;;;21.51;75.33
54556;BME280;57291;37.520;15.106;2023-05-24T13:01:50;101044.91;;;21.43;75.89
54556;BME280;57291;37.520;15.106;2023-05-24T13:04:20;101039.03;;;21.29;77.03
54556;BME280;57291;37.520;15.106;2023-05-24T13:06:48;101034.63;;;21.28;76.05
54556;BME280;57291;37.520;15.106;2023-05-24T13:09:15;101028.31;;;21.43;76.92
54556;BME280;57291;37.520;15.106;2023-05-24T13:11:48;101032.41;;;21.34;77.11
54556;BME280;57291;37.520;15.106;2023-05-24T13:14:16;101029.75;;;21.21;78.10
54556;BME280;57291;37.520;15.106;2023-05-24T13:16:44;101021.63;;;21.28;79.41
54556;BME280;57291;37.520;15.106;2023-05-24T13:19:12;101020.81;;;21.44;79.42
54556;BME280;57291;37.520;15.106;2023-05-24T13:21:39;101014.50;;;21.27;79.20